Time;durP1;ratioP1;P1;durP2;ratioP2;P2;SDS_P1;SDS_P2;PMS_P1;PMS_P2;Temp;Humidity;BMP_temperature;BMP_pressure;BME280_temperature;BME280_humidity;BME280_pressure;Samples;Min_cycle;Max_cycle;Signal;HPM_P1;HPM_P2
2023/06/29 05:03:26;;;;;;;7.53;3.22;;;17.80;89.00;;;;;;5154456;23;19917;-75
2023/06/29 05:05:52;;;;;;;6.95;3.90;;;17.90;89.00;;;;;;5005301;28;20034;-74
2023/06/29 05:08:18;;;;;;;9.00;3.75;;;17.90;89.00;;;;;;5023529;28;20026;-73
2023/06/29 05:10:44;;;;;;;7.32;3.80;;;17.90;89.20;;;;;;5005379;28;20025;-76
2023/06/29 05:13:10;;;;;;;5.07;3.45;;;17.90;89.00;;;;;;5023884;28;20045;-77
2023/06/29 05:15:35;;;;;;;6.63;3.63;;;17.90;89.00;;;;;;5022677;28;20064;-73
2023/06/29 05:18:01;;;;;;;7.05;3.60;;;18.00;89.10;;;;;;5023038;28;20025;-75
2023/06/29 05:20:27;;;;;;;8.57;4.00;;;18.00;88.60;;;;;;5022995;28;20037;-73
2023/06/29 05:22:53;;;;;;;9.50;3.75;;;18.00;88.70;;;;;;5023396;28;20034;-75
2023/06/29 05:25:19;;;;;;;9.65;4.28;;;18.00;89.60;;;;;;5023275;28;20037;-72
2023/06/29 05:27:44;;;;;;;10.35;3.78;;;18.20;88.50;;;;;;5022604;28;20026;-73
2023/06/29 05:30:11;;;;;;;9.55;4.10;;;18.30;88.20;;;;;;5023080;28;20080;-72
2023/06/29 05:32:37;;;;;;;12.05;4.22;;;18.40;87.50;;;;;;5005265;28;20037;-72
2023/06/29 05:35:04;;;;;;;7.13;4.50;;;18.50;87.30;;;;;;5022809;28;20040;-73
2023/06/29 05:37:30;;;;;;;9.23;4.53;;;18.70;87.40;;;;;;5022782;28;20029;-73
2023/06/29 05:39:56;;;;;;;6.72;4.20;;;18.70;87.20;;;;;;5006581;28;20048;-73
2023/06/29 05:42:26;;;;;;;7.25;4.75;;;18.80;87.00;;;;;;5024065;28;20057;-72
2023/06/29 05:44:53;;;;;;;10.45;5.35;;;18.70;87.10;;;;;;5022033;28;20041;-72
2023/06/29 05:47:19;;;;;;;11.15;4.20;;;18.90;87.00;;;;;;5005436;28;20032;-74
2023/06/29 05:49:45;;;;;;;8.27;4.32;;;18.90;86.40;;;;;;5022385;28;20057;-72
2023/06/29 05:52:11;;;;;;;8.75;4.20;;;19.00;86.60;;;;;;5023146;28;20041;-73
2023/06/29 05:54:37;;;;;;;9.30;4.72;;;19.00;86.40;;;;;;5022174;28;20029;-73
2023/06/29 05:57:04;;;;;;;8.18;3.97;;;19.20;85.80;;;;;;5022701;28;20026;-73
2023/06/29 05:59:29;;;;;;;10.18;4.45;;;19.40;85.30;;;;;;5022098;28;20030;-73
2023/06/29 06:01:56;;;;;;;9.57;4.55;;;19.40;84.90;;;;;;5022088;28;20054;-76
2023/06/29 06:04:21;;;;;;;14.02;5.15;;;19.50;84.70;;;;;;5022653;28;20038;-76
2023/06/29 06:06:47;;;;;;;12.43;5.00;;;19.60;84.40;;;;;;5021908;28;20088;-76
2023/06/29 06:09:13;;;;;;;9.90;3.90;;;19.70;84.40;;;;;;5022863;28;20017;-77
2023/06/29 06:11:38;;;;;;;7.47;4.18;;;19.80;84.30;;;;;;5022062;28;20260;-75
2023/06/29 06:14:04;;;;;;;10.40;4.20;;;19.90;83.60;;;;;;5022764;28;20105;-74
2023/06/29 06:16:30;;;;;;;9.05;3.58;;;20.10;83.40;;;;;;5022453;28;20044;-75
2023/06/29 06:18:56;;;;;;;10.70;3.63;;;20.30;83.10;;;;;;5024308;28;20097;-76
2023/06/29 06:21:23;;;;;;;9.40;4.05;;;20.50;82.00;;;;;;5026349;28;20045;-77
2023/06/29 06:23:49;;;;;;;17.10;4.50;;;20.60;81.70;;;;;;5026129;28;20064;-76
2023/06/29 06:26:15;;;;;;;11.75;4.00;;;20.70;81.50;;;;;;5026635;28;20428;-73
2023/06/29 06:28:40;;;;;;;17.35;5.07;;;20.70;81.20;;;;;;5024596;28;20034;-76
2023/06/29 06:31:07;;;;;;;12.45;4.40;;;20.70;81.30;;;;;;5026030;28;20030;-75
2023/06/29 06:33:32;;;;;;;8.40;3.78;;;20.90;80.80;;;;;;5025562;28;20219;-74
2023/06/29 06:35:59;;;;;;;18.65;4.75;;;21.00;80.40;;;;;;5018141;28;20021;-75
2023/06/29 06:38:25;;;;;;;15.13;4.60;;;21.20;80.00;;;;;;5021725;28;20042;-75
2023/06/29 06:40:51;;;;;;;16.98;4.05;;;21.40;79.30;;;;;;5024964;28;20238;-76
2023/06/29 06:43:17;;;;;;;10.32;4.10;;;21.60;79.10;;;;;;5025583;28;20029;-75
2023/06/29 06:45:44;;;;;;;8.15;3.90;;;21.80;78.20;;;;;;5024369;28;20207;-76
2023/06/29 06:48:10;;;;;;;7.55;4.30;;;21.80;77.90;;;;;;5025852;28;20084;-76
2023/06/29 06:50:35;;;;;;;10.60;4.13;;;21.60;78.00;;;;;;5020711;28;20215;-75
2023/06/29 06:53:01;;;;;;;10.20;3.83;;;21.70;78.30;;;;;;5024669;28;20203;-75
2023/06/29 06:55:27;;;;;;;11.57;3.80;;;21.70;78.10;;;;;;5026665;28;20113;-76
2023/06/29 06:57:53;;;;;;;6.10;3.45;;;21.80;77.90;;;;;;5029675;28;20033;-75
2023/06/29 07:00:19;;;;;;;10.95;5.78;;;21.90;77.30;;;;;;5028900;28;20037;-74
2023/06/29 07:02:45;;;;;;;24.50;9.98;;;22.10;76.70;;;;;;5028544;28;20064;-74
2023/06/29 07:05:11;;;;;;;10.93;3.83;;;22.20;76.30;;;;;;5025774;28;20014;-74
2023/06/29 07:07:37;;;;;;;7.25;3.88;;;22.40;75.90;;;;;;5022743;28;20129;-75
2023/06/29 07:10:03;;;;;;;9.68;3.90;;;22.50;75.30;;;;;;5008759;28;20064;-74
2023/06/29 07:12:28;;;;;;;12.65;3.45;;;22.60;74.70;;;;;;5005387;28;20054;-75
2023/06/29 07:14:54;;;;;;;8.45;3.22;;;22.60;74.70;;;;;;5005055;28;20030;-79
2023/06/29 07:17:20;;;;;;;7.13;2.88;;;22.90;73.80;;;;;;5005433;28;20030;-75
2023/06/29 07:19:45;;;;;;;5.40;2.78;;;23.10;73.10;;;;;;5004562;28;20041;-76
2023/06/29 07:22:11;;;;;;;7.78;3.35;;;23.50;71.90;;;;;;5008475;28;20030;-75
2023/06/29 07:24:37;;;;;;;9.85;3.28;;;23.70;71.20;;;;;;5004898;28;20026;-76
2023/06/29 07:27:02;;;;;;;6.28;2.50;;;23.90;70.30;;;;;;5004376;28;20026;-76
2023/06/29 07:29:30;;;;;;;9.05;3.10;;;24.10;70.00;;;;;;5003550;28;20033;-75
2023/06/29 07:31:56;;;;;;;10.90;3.73;;;24.20;69.50;;;;;;5005152;28;20026;-75
2023/06/29 07:34:24;;;;;;;6.50;2.40;;;24.20;69.30;;;;;;5004212;28;20026;-75
2023/06/29 07:36:50;;;;;;;6.10;3.07;;;24.30;68.60;;;;;;5019338;28;20068;-77
2023/06/29 07:39:16;;;;;;;9.93;3.30;;;24.40;68.60;;;;;;5019018;28;20030;-77
2023/06/29 07:41:42;;;;;;;15.68;3.08;;;24.60;68.50;;;;;;5024209;28;20378;-77
2023/06/29 07:44:09;;;;;;;8.65;3.38;;;24.80;67.90;;;;;;5024615;28;20093;-76
2023/06/29 07:46:35;;;;;;;8.20;2.88;;;24.70;67.90;;;;;;5024771;28;20033;-77
2023/06/29 07:49:01;;;;;;;5.22;2.35;;;24.80;67.40;;;;;;5024292;28;20137;-76
2023/06/29 07:51:32;;;;;;;9.23;2.70;;;24.80;67.00;;;;;;5018332;28;20042;-76
2023/06/29 07:54:00;;;;;;;10.10;2.83;;;24.80;66.80;;;;;;5003061;28;20058;-77
2023/06/29 07:56:27;;;;;;;;;;;25.00;66.80;;;;;;5006042;28;20034;-76
2023/06/29 07:58:52;;;;;;;6.97;2.88;;;25.00;66.40;;;;;;5004578;28;19945;-77
2023/06/29 08:01:18;;;;;;;10.85;3.22;;;25.00;66.50;;;;;;5004615;28;20092;-76
2023/06/29 08:03:45;;;;;;;15.90;5.45;;;25.10;66.40;;;;;;5003678;28;20042;-77
2023/06/29 08:06:10;;;;;;;12.45;5.07;;;25.30;66.50;;;;;;5004341;28;20034;-77
2023/06/29 08:08:36;;;;;;;13.32;3.65;;;25.60;65.80;;;;;;5004060;28;20085;-78
2023/06/29 08:11:02;;;;;;;16.40;11.45;;;25.80;65.20;;;;;;5003358;28;20021;-77
2023/06/29 08:13:31;;;;;;;9.85;5.10;;;25.60;64.50;;;;;;5003641;28;20224;-79
2023/06/29 08:15:56;;;;;;;6.95;2.70;;;25.70;65.30;;;;;;5004157;28;20421;-76
2023/06/29 08:18:22;;;;;;;7.50;3.17;;;25.70;65.00;;;;;;5004268;28;20053;-78
2023/06/29 08:20:48;;;;;;;6.78;2.00;;;25.60;64.50;;;;;;5004057;28;20030;-76
2023/06/29 08:23:14;;;;;;;9.40;2.78;;;25.70;64.50;;;;;;5004145;28;20098;-77
2023/06/29 08:25:40;;;;;;;5.72;2.50;;;25.90;64.70;;;;;;5003719;28;20032;-77
2023/06/29 08:28:06;;;;;;;6.65;2.53;;;26.10;64.50;;;;;;5002834;28;20033;-76
2023/06/29 08:30:33;;;;;;;7.60;2.33;;;26.30;63.60;;;;;;5004052;28;20031;-76
2023/06/29 08:32:58;;;;;;;6.53;2.03;;;26.40;63.30;;;;;;5002325;28;20041;-78
2023/06/29 08:35:24;;;;;;;6.20;2.53;;;26.70;62.60;;;;;;5007884;28;20296;-76
2023/06/29 08:37:50;;;;;;;5.35;2.13;;;26.90;62.30;;;;;;5023581;28;20021;-78
2023/06/29 08:40:19;;;;;;;7.18;2.30;;;26.80;61.70;;;;;;5023660;28;20036;-76
2023/06/29 08:42:45;;;;;;;6.25;1.95;;;26.70;62.00;;;;;;5022904;28;20033;-77
2023/06/29 08:45:11;;;;;;;8.85;2.15;;;26.70;62.10;;;;;;5023599;28;20374;-76
2023/06/29 08:47:38;;;;;;;6.00;2.30;;;26.70;62.40;;;;;;5023739;28;20037;-78
2023/06/29 08:50:05;;;;;;;5.70;1.50;;;26.60;61.30;;;;;;5023419;28;20160;-78
2023/06/29 08:52:35;;;;;;;4.25;1.70;;;26.30;60.30;;;;;;5023228;28;20038;-77
2023/06/29 08:55:02;;;;;;;4.25;1.60;;;26.30;60.60;;;;;;5022941;28;20037;-76
2023/06/29 08:57:34;;;;;;;3.33;1.55;;;26.50;61.30;;;;;;5023310;28;20014;-77
2023/06/29 09:00:02;;;;;;;4.57;1.58;;;26.50;60.20;;;;;;5022953;28;20410;-77
2023/06/29 09:02:28;;;;;;;2.92;1.50;;;26.70;59.90;;;;;;5022986;28;20073;-79
2023/06/29 09:04:56;;;;;;;3.83;1.52;;;26.80;59.90;;;;;;5022966;28;20097;-77
2023/06/29 09:07:23;;;;;;;4.50;1.30;;;26.80;59.80;;;;;;5023540;28;20021;-77
2023/06/29 09:09:49;;;;;;;7.28;1.70;;;27.10;59.20;;;;;;5026714;28;20038;-75
2023/06/29 09:12:15;;;;;;;8.07;2.22;;;27.60;59.40;;;;;;5030077;28;20038;-75
2023/06/29 09:14:45;;;;;;;3.55;1.27;;;28.00;58.10;;;;;;5025763;28;20044;-78
2023/06/29 09:17:15;;;;;;;8.05;1.98;;;28.20;55.90;;;;;;5023542;28;20029;-76
2023/06/29 09:19:55;;;;;;;5.07;1.35;;;28.20;56.60;;;;;;5038660;28;20041;-77
2023/06/29 09:22:21;;;;;;;10.35;1.80;;;28.30;57.00;;;;;;5023544;28;20033;-77
2023/06/29 09:24:56;;;;;;;4.35;1.50;;;28.80;57.20;;;;;;5021243;28;20038;-76
2023/06/29 09:27:22;;;;;;;4.95;1.40;;;28.60;56.50;;;;;;5023266;28;20030;-77
2023/06/29 09:29:51;;;;;;;3.58;1.30;;;28.50;55.40;;;;;;5022648;28;20053;-76
2023/06/29 09:32:17;;;;;;;3.15;1.20;;;28.60;55.70;;;;;;5022253;28;20331;-75
2023/06/29 09:34:48;;;;;;;4.68;1.55;;;28.70;55.60;;;;;;5022560;28;20025;-77
2023/06/29 09:37:15;;;;;;;6.00;1.30;;;28.60;56.00;;;;;;5009352;28;20319;-76
2023/06/29 09:39:57;;;;;;;5.00;1.70;;;28.60;56.00;;;;;;5012803;28;20080;-77
2023/06/29 09:42:23;;;;;;;2.67;1.10;;;28.50;56.10;;;;;;5003932;28;20030;-75
2023/06/29 09:44:49;;;;;;;3.38;1.10;;;28.40;55.70;;;;;;5005161;28;20029;-76
2023/06/29 09:47:18;;;;;;;3.65;1.17;;;28.40;56.10;;;;;;5022787;28;20161;-76
2023/06/29 09:49:47;;;;;;;4.65;1.70;;;28.70;56.00;;;;;;5021872;28;20021;-74
2023/06/29 09:52:15;;;;;;;4.05;1.38;;;29.00;55.00;;;;;;5023110;28;20129;-74
2023/06/29 09:54:41;;;;;;;3.38;1.20;;;28.80;54.20;;;;;;5007682;28;20026;-76
2023/06/29 09:57:10;;;;;;;4.30;1.30;;;28.60;54.40;;;;;;5006132;28;20030;-75
2023/06/29 09:59:39;;;;;;;7.40;4.28;;;28.90;54.90;;;;;;5006535;28;20038;-73
2023/06/29 10:02:08;;;;;;;5.13;1.77;;;29.30;54.50;;;;;;5005917;28;20050;-73
2023/06/29 10:04:35;;;;;;;7.50;1.50;;;29.70;54.10;;;;;;5006982;28;20027;-73
2023/06/29 10:07:24;;;;;;;5.47;1.33;;;30.20;53.80;;;;;;5006087;28;20030;-75
2023/06/29 10:09:51;;;;;;;7.07;1.67;;;30.30;53.60;;;;;;4996831;28;20046;-73
2023/06/29 10:12:26;;;;;;;6.07;1.30;;;30.60;53.70;;;;;;5024934;28;20039;-74
2023/06/29 10:14:55;;;;;;;3.80;1.17;;;30.70;53.00;;;;;;5025901;28;20033;-71
2023/06/29 10:17:30;;;;;;;2.97;1.27;;;30.20;53.70;;;;;;5025942;28;20304;-73
2023/06/29 10:19:57;;;;;;;9.55;8.18;;;29.60;54.40;;;;;;5025682;28;20041;-75
2023/06/29 10:22:25;;;;;;;10.77;5.90;;;29.80;54.40;;;;;;5026041;28;20045;-73
2023/06/29 10:25:04;;;;;;;3.10;1.92;;;30.10;55.10;;;;;;5025684;28;20075;-74
2023/06/29 10:27:32;;;;;;;5.05;1.70;;;30.00;53.60;;;;;;5024798;28;20045;-72
2023/06/29 10:30:03;;;;;;;6.85;1.52;;;30.30;53.70;;;;;;5025420;28;20098;-72
2023/06/29 10:32:33;;;;;;;4.93;1.13;;;30.70;53.90;;;;;;5025785;28;20053;-73
2023/06/29 10:35:02;;;;;;;3.67;1.33;;;31.10;52.60;;;;;;5025086;28;20118;-74
2023/06/29 10:37:35;;;;;;;23.77;3.05;;;30.90;52.70;;;;;;5025206;28;20021;-74
2023/06/29 10:40:14;;;;;;;7.18;1.55;;;31.20;52.80;;;;;;5012999;28;20056;-74
2023/06/29 10:42:40;;;;;;;5.28;1.83;;;31.30;52.20;;;;;;5005712;28;20042;-75
2023/06/29 10:45:18;;;;;;;4.55;1.65;;;31.40;51.90;;;;;;5013336;28;20256;-79
2023/06/29 10:48:00;;;;;;;3.28;1.55;;;31.70;51.80;;;;;;5025432;28;20034;-75
2023/06/29 10:50:30;;;;;;;4.82;1.70;;;31.70;51.30;;;;;;5024802;28;20378;-74
2023/06/29 10:53:00;;;;;;;4.22;1.42;;;31.30;51.80;;;;;;5039460;28;20041;-74
2023/06/29 10:55:37;;;;;;;4.78;1.83;;;31.40;52.30;;;;;;5025298;28;20060;-74
2023/06/29 10:58:12;;;;;;;4.03;1.92;;;31.30;52.20;;;;;;5024954;28;20029;-74
2023/06/29 11:00:39;;;;;;;78.57;7.05;;;31.00;52.10;;;;;;5025595;28;20037;-74
2023/06/29 11:03:05;;;;;;;4.22;1.88;;;31.00;53.10;;;;;;5031189;28;20109;-73
2023/06/29 11:05:34;;;;;;;5.53;2.80;;;30.80;53.00;;;;;;5026874;28;20022;-71
2023/06/29 11:08:00;;;;;;;6.57;2.88;;;30.60;52.90;;;;;;5025899;28;20029;-74
2023/06/29 11:10:25;;;;;;;3.88;1.80;;;30.50;53.30;;;;;;5025455;28;20030;-72
2023/06/29 11:12:55;;;;;;;9.90;2.33;;;30.30;53.50;;;;;;5023264;28;20034;-73
2023/06/29 11:15:22;;;;;;;9.02;3.30;;;30.50;53.20;;;;;;5024688;28;20223;-73
2023/06/29 11:17:51;;;;;;;6.50;2.42;;;30.70;53.50;;;;;;5011764;28;20048;-73
2023/06/29 11:20:19;;;;;;;5.88;2.20;;;30.90;53.10;;;;;;5024856;28;20034;-72
2023/06/29 11:22:46;;;;;;;3.93;2.10;;;31.00;52.50;;;;;;5024729;28;20081;-72
2023/06/29 11:25:14;;;;;;;4.38;2.10;;;31.40;52.20;;;;;;5017168;28;20438;-74
2023/06/29 11:27:46;;;;;;;4.43;2.00;;;31.70;52.00;;;;;;5005060;28;20080;-73
2023/06/29 11:30:12;;;;;;;5.85;2.60;;;31.90;51.80;;;;;;5004985;28;20030;-73
2023/06/29 11:32:39;;;;;;;5.75;2.08;;;32.10;51.40;;;;;;5005345;28;20033;-73
2023/06/29 11:35:10;;;;;;;4.60;1.90;;;32.40;51.30;;;;;;5022116;28;20080;-73
2023/06/29 11:37:38;;;;;;;6.95;2.05;;;32.80;50.70;;;;;;5005819;28;20521;-73
2023/06/29 11:40:08;;;;;;;4.80;2.20;;;33.30;50.20;;;;;;5019335;28;20057;-72
2023/06/29 11:42:36;;;;;;;5.13;2.05;;;33.60;49.90;;;;;;5004743;28;20041;-72
2023/06/29 11:45:04;;;;;;;6.30;2.40;;;34.00;49.30;;;;;;5014762;28;20204;-70
2023/06/29 11:47:31;;;;;;;4.82;2.13;;;34.60;49.10;;;;;;5004802;28;20018;-73
2023/06/29 11:50:02;;;;;;;6.43;1.95;;;35.40;48.30;;;;;;5005208;28;20126;-73
2023/06/29 11:52:32;;;;;;;17.60;3.05;;;35.90;47.40;;;;;;5023087;28;20053;-73
2023/06/29 11:55:06;;;;;;;6.65;2.20;;;37.20;47.30;;;;;;5023575;28;20255;-73
2023/06/29 11:57:33;;;;;;;20.40;11.60;;;37.70;46.50;;;;;;5023744;28;20041;-73
2023/06/29 12:00:00;;;;;;;3.83;2.33;;;38.20;46.30;;;;;;5023361;28;20346;-73
2023/06/29 12:02:26;;;;;;;5.38;2.03;;;38.00;45.30;;;;;;5023569;28;20366;-74
2023/06/29 12:04:59;;;;;;;4.18;2.17;;;37.40;45.50;;;;;;5013935;28;20056;-73
2023/06/29 12:07:44;;;;;;;5.32;2.67;;;36.60;46.80;;;;;;5008413;28;20255;-72
2023/06/29 12:10:13;;;;;;;9.73;2.72;;;36.50;47.00;;;;;;5023559;28;20064;-74
2023/06/29 12:12:45;;;;;;;7.22;2.45;;;36.70;47.00;;;;;;5010969;28;20052;-74
2023/06/29 12:15:21;;;;;;;3.80;2.38;;;36.00;46.40;;;;;;5003628;28;20034;-73
2023/06/29 12:17:50;;;;;;;3.88;2.25;;;35.30;48.30;;;;;;5004020;28;20321;-72
2023/06/29 12:20:18;;;;;;;5.20;2.47;;;35.70;47.40;;;;;;5010128;28;20013;-73
2023/06/29 12:22:45;;;;;;;4.97;2.60;;;35.60;46.90;;;;;;5023425;28;20111;-72
2023/06/29 12:25:12;;;;;;;3.90;2.40;;;37.40;46.70;;;;;;5023180;28;20034;-74
2023/06/29 12:27:39;;;;;;;;;;;38.80;45.00;;;;;;5023608;28;20036;-73
2023/06/29 12:30:06;;;;;;;5.40;2.63;;;40.20;44.40;;;;;;5023180;28;19905;-73
2023/06/29 12:32:31;;;;;;;4.30;2.80;;;40.80;43.80;;;;;;5015086;28;20267;-74
2023/06/29 12:34:57;;;;;;;5.82;3.28;;;40.10;43.60;;;;;;5003407;28;20030;-73
2023/06/29 12:37:23;;;;;;;4.22;2.70;;;38.80;44.20;;;;;;5003996;28;20104;-73
2023/06/29 12:39:49;;;;;;;6.00;2.90;;;38.30;44.70;;;;;;5002858;28;20244;-74
2023/06/29 12:42:15;;;;;;;4.05;2.65;;;37.70;45.90;;;;;;5004049;28;20034;-73
2023/06/29 12:44:41;;;;;;;6.75;3.35;;;37.00;46.00;;;;;;5008409;28;20198;-74
2023/06/29 12:47:06;;;;;;;5.82;2.83;;;36.40;46.20;;;;;;5023227;28;20029;-73
2023/06/29 12:49:32;;;;;;;5.72;2.70;;;36.00;47.00;;;;;;5023096;28;20315;-74
2023/06/29 12:51:58;;;;;;;4.43;2.55;;;35.60;47.50;;;;;;5021530;28;20064;-74
2023/06/29 12:54:24;;;;;;;8.10;4.25;;;35.50;47.70;;;;;;5023134;28;20025;-74
2023/06/29 12:56:50;;;;;;;5.15;2.05;;;35.20;49.10;;;;;;5022977;28;20034;-75
2023/06/29 12:59:15;;;;;;;6.80;2.40;;;34.70;49.20;;;;;;5022718;28;20072;-74
2023/06/29 13:01:41;;;;;;;4.97;1.65;;;34.20;50.10;;;;;;5022626;28;20041;-72
2023/06/29 13:04:07;;;;;;;4.47;2.08;;;33.40;50.80;;;;;;5021968;28;20053;-72
2023/06/29 13:06:33;;;;;;;6.38;2.08;;;32.80;51.80;;;;;;5027598;28;20189;-72
2023/06/29 13:08:58;;;;;;;6.53;2.03;;;32.60;52.20;;;;;;5026199;28;20037;-73
2023/06/29 13:11:24;;;;;;;4.65;1.77;;;32.00;52.70;;;;;;5023686;28;20064;-74
2023/06/29 13:13:50;;;;;;;5.00;2.00;;;32.00;53.10;;;;;;5023080;28;20022;-73
2023/06/29 13:16:15;;;;;;;5.20;1.95;;;32.10;53.10;;;;;;5021253;28;20034;-74
2023/06/29 13:18:41;;;;;;;7.25;2.20;;;32.70;52.70;;;;;;5023064;28;20199;-75
2023/06/29 13:21:07;;;;;;;4.50;2.10;;;33.10;52.00;;;;;;5022322;28;20033;-76
2023/06/29 13:23:32;;;;;;;4.30;1.85;;;33.70;51.10;;;;;;5022930;28;20093;-74
2023/06/29 13:25:58;;;;;;;4.28;1.58;;;33.90;50.50;;;;;;5021861;28;20044;-75
2023/06/29 13:28:24;;;;;;;8.13;2.55;;;33.50;50.90;;;;;;5027170;28;20033;-76
2023/06/29 13:30:50;;;;;;;6.78;2.08;;;33.20;51.50;;;;;;5027866;28;20041;-74
2023/06/29 13:33:15;;;;;;;4.20;2.10;;;33.20;51.30;;;;;;5014557;28;20093;-76
2023/06/29 13:35:41;;;;;;;4.43;1.85;;;33.30;51.30;;;;;;5015194;28;20095;-73
2023/06/29 13:38:07;;;;;;;6.03;2.08;;;33.40;51.10;;;;;;5028870;28;20192;-75
2023/06/29 13:40:32;;;;;;;3.70;1.63;;;33.30;51.00;;;;;;5028368;28;20296;-76
2023/06/29 13:42:58;;;;;;;7.13;1.90;;;33.80;51.10;;;;;;5029087;28;20022;-75
2023/06/29 13:45:24;;;;;;;4.43;1.88;;;34.10;50.60;;;;;;5018423;28;20034;-74
2023/06/29 13:47:58;;;;;;;5.65;2.00;;;34.60;50.20;;;;;;5009950;28;20038;-74
2023/06/29 13:50:24;;;;;;;5.90;1.83;;;34.40;49.90;;;;;;5009551;28;20033;-75
2023/06/29 13:52:50;;;;;;;3.75;2.10;;;34.10;49.90;;;;;;5009826;28;20112;-76
2023/06/29 13:55:15;;;;;;;8.23;2.50;;;33.80;50.30;;;;;;5008356;28;20029;-75
2023/06/29 13:57:41;;;;;;;3.38;1.48;;;33.80;50.40;;;;;;5009530;28;20026;-75
2023/06/29 14:00:07;;;;;;;6.07;2.08;;;33.50;50.60;;;;;;5008930;28;20097;-75
2023/06/29 14:02:34;;;;;;;4.25;1.90;;;33.80;50.70;;;;;;5009274;28;20065;-77
2023/06/29 14:04:59;;;;;;;4.63;1.92;;;34.00;50.10;;;;;;5008852;28;20057;-75
2023/06/29 14:07:25;;;;;;;7.30;2.10;;;34.10;50.20;;;;;;5009388;28;20154;-76
2023/06/29 14:09:51;;;;;;;8.00;2.10;;;34.00;50.10;;;;;;5009587;28;20049;-72
2023/06/29 14:12:17;;;;;;;4.60;1.90;;;34.30;50.00;;;;;;5009045;28;20053;-77
2023/06/29 14:14:45;;;;;;;4.75;2.10;;;34.40;49.80;;;;;;5009620;28;20029;-76
2023/06/29 14:17:12;;;;;;;4.50;2.00;;;34.40;54.70;;;;;;5009186;28;20040;-76
2023/06/29 14:19:38;;;;;;;4.10;1.98;;;34.10;56.60;;;;;;5009271;28;20290;-73
2023/06/29 14:22:05;;;;;;;8.43;1.92;;;34.10;59.10;;;;;;5009168;28;20030;-76
2023/06/29 14:24:31;;;;;;;7.07;2.28;;;33.60;62.40;;;;;;5009656;28;20037;-73
2023/06/29 14:26:57;;;;;;;9.77;2.50;;;33.60;67.00;;;;;;5008936;28;20034;-73
2023/06/29 14:29:22;;;;;;;4.82;1.95;;;33.60;75.60;;;;;;5009114;28;20211;-76
2023/06/29 14:31:48;;;;;;;5.38;2.15;;;33.50;75.10;;;;;;5009542;28;20045;-74
2023/06/29 14:34:14;;;;;;;5.25;1.98;;;33.50;76.40;;;;;;5026867;28;20057;-73
2023/06/29 14:36:40;;;;;;;4.80;2.30;;;33.50;78.60;;;;;;5015168;28;20338;-73
2023/06/29 14:39:05;;;;;;;4.35;2.30;;;33.30;50.20;;;;;;5006302;28;20030;-74
2023/06/29 14:41:34;;;;;;;3.35;1.90;;;33.10;51.10;;;;;;5006151;28;20034;-75
2023/06/29 14:43:59;;;;;;;3.40;2.00;;;32.60;51.60;;;;;;5005693;28;20030;-74
2023/06/29 14:46:25;;;;;;;6.97;2.40;;;32.60;51.80;;;;;;5006128;28;20212;-74
2023/06/29 14:48:51;;;;;;;6.38;2.08;;;32.40;51.90;;;;;;5006216;28;20296;-73
2023/06/29 14:51:17;;;;;;;6.95;2.10;;;32.20;52.00;;;;;;5006341;28;20042;-73
2023/06/29 14:53:43;;;;;;;5.93;2.30;;;31.90;52.70;;;;;;5006626;28;20027;-76
2023/06/29 14:56:10;;;;;;;4.03;2.00;;;32.20;52.50;;;;;;5006193;28;20030;-75
2023/06/29 14:58:36;;;;;;;5.47;2.15;;;32.10;52.20;;;;;;5005914;28;20031;-75
2023/06/29 15:01:02;;;;;;;7.47;2.20;;;32.20;52.30;;;;;;5005244;28;20026;-77
2023/06/29 15:03:27;;;;;;;5.32;2.10;;;32.90;51.90;;;;;;5005579;28;20077;-75
2023/06/29 15:05:54;;;;;;;4.70;2.22;;;33.80;51.10;;;;;;5005692;28;20050;-73
2023/06/29 15:08:20;;;;;;;6.15;2.50;;;33.80;50.70;;;;;;5005533;28;20261;-73
2023/06/29 15:10:45;;;;;;;5.80;2.00;;;34.00;50.50;;;;;;5023743;28;20057;-73
2023/06/29 15:13:11;;;;;;;3.63;1.88;;;34.30;50.30;;;;;;5024517;28;20038;-74
2023/06/29 15:15:37;;;;;;;7.10;4.85;;;34.40;50.20;;;;;;5025274;28;20017;-75
2023/06/29 15:18:04;;;;;;;3.55;2.08;;;34.50;50.00;;;;;;5024584;28;20026;-75
2023/06/29 15:20:30;;;;;;;5.50;2.30;;;34.70;50.10;;;;;;5021960;28;20227;-74
2023/06/29 15:22:56;;;;;;;3.75;2.10;;;34.40;50.10;;;;;;5022262;28;20022;-73
2023/06/29 15:25:22;;;;;;;3.78;2.20;;;34.20;50.00;;;;;;5024677;28;20041;-73
2023/06/29 15:27:47;;;;;;;4.15;1.98;;;34.40;49.70;;;;;;5025333;28;20026;-74
2023/06/29 15:30:13;;;;;;;4.05;2.20;;;34.80;49.50;;;;;;5024690;28;20028;-74
2023/06/29 15:32:39;;;;;;;3.22;1.98;;;34.50;49.30;;;;;;5025201;28;20034;-73
2023/06/29 15:35:05;;;;;;;6.10;2.17;;;34.60;49.90;;;;;;5023410;28;20093;-73
2023/06/29 15:37:32;;;;;;;4.32;1.95;;;34.70;50.00;;;;;;5012224;28;20030;-73
2023/06/29 15:40:01;;;;;;;4.60;2.03;;;34.80;50.00;;;;;;5010622;28;20207;-74
2023/06/29 15:42:28;;;;;;;3.92;2.10;;;34.70;49.70;;;;;;5004814;28;20261;-73
2023/06/29 15:44:53;;;;;;;4.30;2.10;;;34.80;50.00;;;;;;5005107;28;20027;-73
2023/06/29 15:47:19;;;;;;;3.90;1.88;;;34.80;49.60;;;;;;5003583;28;20677;-74
2023/06/29 15:49:45;;;;;;;4.53;2.13;;;34.30;50.00;;;;;;5004851;28;20022;-73
2023/06/29 15:52:11;;;;;;;6.05;2.25;;;33.80;50.70;;;;;;5004133;28;20054;-73
2023/06/29 15:54:38;;;;;;;3.80;1.95;;;33.60;51.20;;;;;;5005047;28;20169;-74
2023/06/29 15:57:05;;;;;;;4.97;2.13;;;33.30;51.40;;;;;;5004474;28;20040;-73
2023/06/29 15:59:30;;;;;;;3.85;2.08;;;32.80;51.90;;;;;;5004515;28;20039;-74
2023/06/29 16:01:56;;;;;;;7.93;2.42;;;32.40;52.60;;;;;;5004317;28;20050;-74
2023/06/29 16:04:23;;;;;;;3.63;1.98;;;32.00;53.30;;;;;;5004398;28;20041;-74
2023/06/29 16:06:48;;;;;;;3.85;2.08;;;31.50;53.60;;;;;;5004877;28;20061;-74
2023/06/29 16:09:14;;;;;;;4.75;2.03;;;31.20;54.20;;;;;;5009311;28;20033;-73
2023/06/29 16:11:40;;;;;;;4.20;1.90;;;31.00;54.70;;;;;;5024449;28;20101;-75
2023/06/29 16:14:06;;;;;;;4.97;2.33;;;30.70;54.80;;;;;;5023746;28;20042;-74
2023/06/29 16:16:31;;;;;;;7.30;2.10;;;30.60;55.20;;;;;;5023018;28;20335;-74
2023/06/29 16:18:57;;;;;;;5.35;2.10;;;30.60;55.40;;;;;;5024243;28;20030;-74
2023/06/29 16:21:23;;;;;;;5.45;2.28;;;30.50;55.60;;;;;;5023486;28;20042;-73
2023/06/29 16:23:48;;;;;;;5.25;2.47;;;30.50;55.90;;;;;;5024049;28;20026;-76
2023/06/29 16:26:14;;;;;;;3.92;1.95;;;30.20;56.00;;;;;;5023588;28;20026;-74
2023/06/29 16:28:40;;;;;;;5.00;2.17;;;30.00;56.20;;;;;;5023133;28;20311;-74
2023/06/29 16:31:06;;;;;;;4.63;2.10;;;29.70;56.40;;;;;;5023357;28;20041;-74
2023/06/29 16:33:31;;;;;;;2.90;1.70;;;29.50;56.80;;;;;;5024098;28;20042;-77
2023/06/29 16:35:57;;;;;;;4.28;1.83;;;29.20;57.30;;;;;;5015861;28;20319;-76
2023/06/29 16:38:23;;;;;;;5.13;2.13;;;28.90;58.00;;;;;;5009492;28;20026;-74
2023/06/29 16:40:51;;;;;;;4.07;2.28;;;28.80;58.20;;;;;;5022406;28;20022;-73
2023/06/29 16:43:16;;;;;;;5.72;1.98;;;28.80;58.20;;;;;;5023039;28;20279;-74
2023/06/29 16:45:45;;;;;;;4.05;2.10;;;28.70;58.10;;;;;;5023650;28;20093;-74
2023/06/29 16:48:11;;;;;;;5.63;2.17;;;28.70;58.30;;;;;;5022782;28;20032;-74
2023/06/29 16:50:37;;;;;;;5.57;2.22;;;28.70;58.50;;;;;;5023526;28;20033;-73
2023/06/29 16:53:02;;;;;;;3.97;2.10;;;28.60;59.10;;;;;;5022490;28;20022;-73
2023/06/29 16:55:28;;;;;;;6.03;2.10;;;28.80;58.50;;;;;;5023302;28;20038;-73
2023/06/29 16:57:54;;;;;;;7.13;2.15;;;29.00;58.40;;;;;;5022382;28;20096;-74
2023/06/29 17:00:20;;;;;;;4.18;2.00;;;29.40;57.90;;;;;;5022598;28;20171;-73
2023/06/29 17:02:46;;;;;;;4.53;1.90;;;29.70;57.20;;;;;;5022292;28;20272;-73
2023/06/29 17:05:12;;;;;;;4.63;2.67;;;29.50;57.20;;;;;;5022755;28;20026;-73
2023/06/29 17:07:38;;;;;;;5.72;2.30;;;29.70;57.10;;;;;;5023165;28;20080;-74
2023/06/29 17:10:04;;;;;;;5.35;3.00;;;30.00;56.30;;;;;;5009804;28;20026;-75
2023/06/29 17:12:30;;;;;;;5.75;1.95;;;30.30;56.30;;;;;;5032873;28;20037;-76
2023/06/29 17:14:56;;;;;;;6.93;1.98;;;30.50;55.90;;;;;;5023372;28;20036;-76
2023/06/29 17:17:22;;;;;;;6.95;1.77;;;30.50;55.50;;;;;;5022843;28;20030;-73
2023/06/29 17:19:48;;;;;;;5.97;1.90;;;30.40;55.80;;;;;;5023331;28;20025;-77
2023/06/29 17:22:15;;;;;;;4.80;2.28;;;30.50;55.90;;;;;;5022725;28;20068;-76
2023/06/29 17:24:41;;;;;;;4.57;1.80;;;30.40;55.80;;;;;;5023133;28;20022;-76
2023/06/29 17:27:09;;;;;;;9.25;2.00;;;30.30;56.10;;;;;;5022917;28;20204;-77
2023/06/29 17:29:38;;;;;;;6.82;2.00;;;30.30;56.30;;;;;;5023330;28;20316;-75
2023/06/29 17:32:04;;;;;;;5.28;2.30;;;30.50;56.20;;;;;;5023347;28;20316;-77
2023/06/29 17:34:30;;;;;;;6.03;2.38;;;30.90;55.60;;;;;;5022686;28;20034;-75
2023/06/29 17:36:58;;;;;;;6.43;2.10;;;31.50;54.90;;;;;;5006925;28;20065;-76
2023/06/29 17:39:24;;;;;;;;;;;31.40;55.20;;;;;;5002320;28;20031;-75
2023/06/29 17:41:49;;;;;;;4.88;2.17;;;31.20;55.20;;;;;;5014955;28;20059;-75
2023/06/29 17:44:15;;;;;;;4.95;2.15;;;31.10;55.70;;;;;;5021447;28;20038;-74
2023/06/29 17:46:41;;;;;;;3.88;1.85;;;31.00;55.60;;;;;;5021798;28;20041;-75